aviador You're here:

KFPR Decoded Metar

FORT PIERCE in FL, USA
Report Time2018-05-25 19:53:00
UTC Time2018-05-25 20:49:42
Flight Rules vfr VFR
Wind170° at 08 kt
W.Decomp.*RWY 14: 6.4 kt HW 4.8 kt RCW
RWY 10: 1.8 kt HW 7.8 kt RCW
W.Rank170° ranks 19
Current wind is above 170° avg. (5.9)
Visibility9999 m
Phenomena:N/A
Clouds:Few 021 Hf
Expected CloudBase > 800 ft AGL from Temp-Dew spread
CeilingNone
Temp25°C (ISA +10)
Dew Point23°C (89% RH)
QNH1016 hPa
Density Alt1,480 ft
Elevation43 ft
Report Wrong Elevation
Raw Report
METAR KFPR 251953Z 17008KT 10SM FEW021 25/23 A3000 RMK AO2 LTG DSNT
NW SLP159 T02500228=

Extra information for KFPR:More info

Metar Taf Metar & Taf Last 4 Metars F.Rules Stats Wind Profile Meteogram Temp Stats Airport Information Weather charts Add Link Nearby VenuesMetar ALERT Operation Metar Decoded Social comments

AIRNAV info for KFPR